createdAt,value
2017-11-04T11:10:50.332Z,13.30
2017-11-04T11:13:18.572Z,13.10
2017-11-04T11:15:46.081Z,13.10
2017-11-04T11:18:14.332Z,13.00
2017-11-04T11:20:41.836Z,13.00
2017-11-04T11:23:09.315Z,13.10
2017-11-04T11:25:36.799Z,13.10
2017-11-04T11:28:04.289Z,13.10
2017-11-04T11:30:32.544Z,13.10
2017-11-04T11:33:00.041Z,13.10
2017-11-04T11:35:27.535Z,13.10
2017-11-04T11:37:55.039Z,13.10
2017-11-04T11:40:23.280Z,13.10
2017-11-04T11:42:50.764Z,13.10
2017-11-04T11:45:18.256Z,13.10
2017-11-04T11:47:45.740Z,13.10
2017-11-04T11:50:13.227Z,13.10
2017-11-04T11:52:40.739Z,13.10
2017-11-04T11:55:08.240Z,13.10
2017-11-04T11:57:35.731Z,13.10
2017-11-04T12:00:03.976Z,13.10
2017-11-04T12:02:31.468Z,13.10
2017-11-04T12:04:59.707Z,13.20
2017-11-04T12:07:27.191Z,13.20
2017-11-04T12:09:55.432Z,13.50
2017-11-04T12:12:22.956Z,13.50
2017-11-04T12:14:50.442Z,13.80
2017-11-04T12:17:17.927Z,14.10
2017-11-04T12:19:45.420Z,14.30
2017-11-04T12:22:12.923Z,14.30
2017-11-04T12:24:40.427Z,14.30
2017-11-04T12:27:08.670Z,14.50
2017-11-04T12:29:36.152Z,14.50
2017-11-04T12:32:03.716Z,14.70
2017-11-04T12:34:32.019Z,14.90
2017-11-04T12:36:59.511Z,14.80
2017-11-04T12:39:26.989Z,15.00
2017-11-04T12:41:54.484Z,15.20
2017-11-04T12:44:21.960Z,15.20
2017-11-04T12:46:49.444Z,15.20
2017-11-04T12:49:16.939Z,15.10
2017-11-04T12:51:45.195Z,15.50
2017-11-04T12:54:12.693Z,15.50
2017-11-04T12:56:40.172Z,15.70
2017-11-04T12:59:07.693Z,15.80
2017-11-04T13:01:35.940Z,16.10
2017-11-04T13:04:03.425Z,16.10
2017-11-04T13:06:31.715Z,16.50
2017-11-04T13:08:59.977Z,16.70
2017-11-04T13:11:28.340Z,16.90
2017-11-04T13:13:56.585Z,17.00
2017-11-04T13:16:24.096Z,17.00
2017-11-04T13:18:52.340Z,17.60
2017-11-04T13:21:19.820Z,17.60
2017-11-04T13:23:47.311Z,17.80
2017-11-04T13:26:14.800Z,18.00
2017-11-04T13:28:42.339Z,18.10
2017-11-04T13:31:09.869Z,18.20
2017-11-04T13:33:38.144Z,18.60
2017-11-04T13:36:05.736Z,18.50
2017-11-04T13:38:33.297Z,18.80
2017-11-04T13:41:00.828Z,18.70
2017-11-04T13:43:29.067Z,18.80
2017-11-04T13:45:56.559Z,18.80
2017-11-04T13:48:24.804Z,18.60
2017-11-04T13:50:52.301Z,18.60
2017-11-04T13:53:19.884Z,18.40
2017-11-04T13:55:47.388Z,18.10
2017-11-04T13:58:14.899Z,17.80
2017-11-04T14:00:42.699Z,17.60
2017-11-04T14:03:10.212Z,17.40
2017-11-04T14:05:37.696Z,17.20
2017-11-04T14:08:05.195Z,17.10
2017-11-04T14:10:33.453Z,16.70
2017-11-04T14:13:00.948Z,16.60
2017-11-04T14:15:29.223Z,16.40
2017-11-04T14:17:57.489Z,16.30
2017-11-04T14:20:25.771Z,16.20
2017-11-04T14:22:54.029Z,16.10
2017-11-04T14:25:21.524Z,16.10
2017-11-04T14:27:49.785Z,16.10
2017-11-04T14:30:18.035Z,16.00
2017-11-04T14:32:45.535Z,15.90
2017-11-04T14:35:13.788Z,15.90
2017-11-04T14:37:42.075Z,15.90
2017-11-04T14:40:10.328Z,15.90
2017-11-04T14:42:37.843Z,15.90
2017-11-04T14:45:05.340Z,15.80
2017-11-04T14:47:32.816Z,15.80
2017-11-04T14:50:00.314Z,15.70
2017-11-04T14:52:27.807Z,15.70
2017-11-04T14:54:56.227Z,15.70
2017-11-04T14:57:24.494Z,15.70
2017-11-04T14:59:52.753Z,15.70
2017-11-04T15:02:20.253Z,15.70
2017-11-04T15:04:47.735Z,15.80
2017-11-04T15:07:15.244Z,15.80
2017-11-04T15:09:43.498Z,15.70
2017-11-04T15:12:10.995Z,15.70
2017-11-04T15:14:39.239Z,15.70
2017-11-04T15:17:06.721Z,15.70
2017-11-04T15:19:34.992Z,15.70
2017-11-04T15:22:03.268Z,15.70
2017-11-04T15:24:30.767Z,15.70
2017-11-04T15:26:58.244Z,15.70
2017-11-04T15:29:25.784Z,15.60
2017-11-04T15:31:53.292Z,15.70
2017-11-04T15:34:21.596Z,15.60
2017-11-04T15:36:49.849Z,15.60
2017-11-04T15:39:17.319Z,15.60
2017-11-04T15:41:45.582Z,15.60
2017-11-04T15:44:13.065Z,15.60
2017-11-04T15:46:41.331Z,15.60
2017-11-04T15:49:09.584Z,15.60
2017-11-04T15:51:37.059Z,15.60
2017-11-04T15:54:06.067Z,15.60
2017-11-04T15:56:34.313Z,15.60
2017-11-04T15:59:01.831Z,15.50
2017-11-04T16:01:29.303Z,15.60
2017-11-04T16:03:56.820Z,15.50
2017-11-04T16:06:25.063Z,15.60
2017-11-04T16:08:52.543Z,15.60
2017-11-04T16:11:20.831Z,15.60
2017-11-04T16:13:49.080Z,15.70
2017-11-04T16:16:18.084Z,15.70
2017-11-04T16:18:46.343Z,15.70
2017-11-04T16:21:13.840Z,15.70
2017-11-04T16:23:42.087Z,15.80
2017-11-04T16:26:10.421Z,15.80
2017-11-04T16:28:37.915Z,15.80
2017-11-04T16:31:05.399Z,15.90
2017-11-04T16:33:33.659Z,15.90
2017-11-04T16:36:01.143Z,15.90
2017-11-04T16:38:29.408Z,16.00
2017-11-04T16:40:57.655Z,16.00
2017-11-04T16:43:25.135Z,16.00
2017-11-04T16:45:53.399Z,16.00
2017-11-04T16:48:20.883Z,16.00
2017-11-04T16:50:49.136Z,15.90
2017-11-04T16:53:16.611Z,15.90
2017-11-04T16:55:44.940Z,15.90
2017-11-04T16:58:12.429Z,15.90
2017-11-04T17:00:40.138Z,15.90
2017-11-04T17:03:07.632Z,15.80
2017-11-04T17:05:35.112Z,15.70
2017-11-04T17:08:02.610Z,15.70
2017-11-04T17:10:30.098Z,15.70
2017-11-04T17:12:57.590Z,15.70
2017-11-04T17:15:25.077Z,15.60
2017-11-04T17:17:53.343Z,15.60
2017-11-04T17:20:21.604Z,15.60
2017-11-04T17:22:49.075Z,15.60
2017-11-04T17:25:17.346Z,15.60
2017-11-04T17:27:45.594Z,15.50
2017-11-04T17:30:13.084Z,15.50
2017-11-04T17:32:41.324Z,15.50
2017-11-04T17:35:08.797Z,15.50
2017-11-04T17:37:36.285Z,15.50
2017-11-04T17:40:04.543Z,15.40
2017-11-04T17:42:32.811Z,15.40
2017-11-04T17:45:00.293Z,15.40
2017-11-04T17:47:28.551Z,15.40
2017-11-04T17:49:56.893Z,15.40
2017-11-04T17:52:24.371Z,15.40
2017-11-04T17:54:51.872Z,15.40
2017-11-04T17:57:20.176Z,15.40
2017-11-04T17:59:47.702Z,15.40
2017-11-04T18:02:15.940Z,15.40
2017-11-04T18:04:43.431Z,15.40
2017-11-04T18:07:11.704Z,15.40
2017-11-04T18:09:39.959Z,15.40
2017-11-04T18:12:07.464Z,15.40
2017-11-04T18:14:34.944Z,15.40
2017-11-04T18:17:02.440Z,15.40
2017-11-04T18:19:29.919Z,15.50
2017-11-04T18:21:58.189Z,15.40
2017-11-04T18:24:26.436Z,15.40
2017-11-04T18:26:53.940Z,15.40
2017-11-04T18:29:22.242Z,15.40
2017-11-04T18:31:49.768Z,15.40
2017-11-04T18:34:18.052Z,15.40
2017-11-04T18:36:46.312Z,15.40
2017-11-04T18:39:13.827Z,15.40
2017-11-04T18:41:41.304Z,15.40
2017-11-04T18:44:08.793Z,15.40
2017-11-04T18:46:37.072Z,15.30
2017-11-04T18:49:05.319Z,15.30
2017-11-04T18:51:32.917Z,15.30
2017-11-04T18:54:01.160Z,15.30
2017-11-04T18:56:28.660Z,15.30
2017-11-04T18:58:56.900Z,15.30
2017-11-04T19:01:24.375Z,15.30
2017-11-04T19:03:52.635Z,15.30
2017-11-04T19:06:20.115Z,15.30
2017-11-04T19:08:48.371Z,15.30
2017-11-04T19:11:15.848Z,15.30
2017-11-04T19:13:44.124Z,15.30
2017-11-04T19:16:12.376Z,15.30
2017-11-04T19:18:39.858Z,15.40
2017-11-04T19:21:07.384Z,15.40
2017-11-04T19:23:34.853Z,15.30
2017-11-04T19:26:02.349Z,15.30
2017-11-04T19:28:29.852Z,15.30
2017-11-04T19:30:57.880Z,15.30
2017-11-04T19:33:26.116Z,15.30
2017-11-04T19:35:53.592Z,15.40
2017-11-04T19:38:21.874Z,15.40
2017-11-04T19:40:50.115Z,15.40
2017-11-04T19:43:17.645Z,15.40
2017-11-04T19:45:45.136Z,15.40
2017-11-04T19:48:12.661Z,15.30
2017-11-04T19:50:40.896Z,15.30
2017-11-04T19:53:09.877Z,15.20
2017-11-04T19:55:37.364Z,15.20
2017-11-04T19:58:05.609Z,15.30
2017-11-04T20:00:33.195Z,15.20
2017-11-04T20:03:01.435Z,15.20
2017-11-04T20:05:28.927Z,15.20
2017-11-04T20:07:57.184Z,15.20
2017-11-04T20:10:25.426Z,15.30
2017-11-04T20:12:52.932Z,15.20
2017-11-04T20:15:21.180Z,15.20
2017-11-04T20:17:48.707Z,15.20
2017-11-04T20:20:16.179Z,15.20
2017-11-04T20:22:43.657Z,15.20
2017-11-04T20:25:11.163Z,15.20
2017-11-04T20:27:38.657Z,15.20
2017-11-04T20:30:06.169Z,15.20
2017-11-04T20:32:34.416Z,15.20
2017-11-04T20:35:01.953Z,15.20
2017-11-04T20:37:29.464Z,15.20
2017-11-04T20:39:57.770Z,15.10
2017-11-04T20:42:25.270Z,15.10
2017-11-04T20:44:52.750Z,15.10
2017-11-04T20:47:21.028Z,15.10
2017-11-04T20:49:49.273Z,15.00
2017-11-04T20:52:16.744Z,15.00
2017-11-04T20:54:44.240Z,15.00
2017-11-04T20:57:12.490Z,15.00
2017-11-04T20:59:39.994Z,15.00
2017-11-04T21:02:07.553Z,15.00
2017-11-04T21:04:35.052Z,15.00
2017-11-04T21:07:02.544Z,15.00
2017-11-04T21:09:30.849Z,15.00
2017-11-04T21:11:58.376Z,15.00
2017-11-04T21:14:26.639Z,15.00
2017-11-04T21:16:54.923Z,15.00
2017-11-04T21:19:23.178Z,15.00
2017-11-04T21:21:50.732Z,15.00
2017-11-04T21:24:18.211Z,14.90
2017-11-04T21:26:47.349Z,15.00
2017-11-04T21:29:14.923Z,14.90
2017-11-04T21:31:42.472Z,15.00
2017-11-04T21:34:10.959Z,15.00
2017-11-04T21:36:38.516Z,15.00
2017-11-04T21:39:06.036Z,15.00
2017-11-04T21:41:34.316Z,15.00
2017-11-04T21:44:02.568Z,15.00
2017-11-04T21:46:30.064Z,15.00
2017-11-04T21:48:58.311Z,15.00
2017-11-04T21:51:25.819Z,15.00
2017-11-04T21:53:53.308Z,15.00
2017-11-04T21:56:20.780Z,15.00
2017-11-04T21:58:48.275Z,15.00
2017-11-04T22:01:16.512Z,15.00
2017-11-04T22:03:43.997Z,15.00
2017-11-04T22:06:12.253Z,15.00
2017-11-04T22:08:39.743Z,14.90
2017-11-04T22:11:08.409Z,15.00
2017-11-04T22:13:35.941Z,15.00
2017-11-04T22:16:03.435Z,15.00
2017-11-04T22:18:31.676Z,15.00
2017-11-04T22:20:59.180Z,14.90
2017-11-04T22:23:27.481Z,15.00
2017-11-04T22:25:55.119Z,15.00
2017-11-04T22:28:23.420Z,14.90
2017-11-04T22:30:50.908Z,14.90
2017-11-04T22:33:18.454Z,15.00
2017-11-04T22:35:46.713Z,14.90
2017-11-04T22:38:15.124Z,14.90
2017-11-04T22:40:42.618Z,14.90
2017-11-04T22:43:10.890Z,14.90
2017-11-04T22:45:39.136Z,14.90
2017-11-04T22:48:06.608Z,14.90
2017-11-04T22:50:34.100Z,14.90
2017-11-04T22:53:02.843Z,14.90
2017-11-04T22:55:30.436Z,14.90
2017-11-04T22:57:58.668Z,14.90
2017-11-04T23:00:26.320Z,14.90
2017-11-04T23:02:53.810Z,14.90
2017-11-04T23:05:21.279Z,14.90
2017-11-04T23:07:49.559Z,14.90
2017-11-04T23:10:17.805Z,14.90
2017-11-04T23:12:45.292Z,14.90
2017-11-04T23:15:12.762Z,15.00
2017-11-04T23:17:41.032Z,15.00
2017-11-04T23:20:10.089Z,15.00
2017-11-04T23:22:37.576Z,14.90
2017-11-04T23:25:05.067Z,14.90
2017-11-04T23:27:33.466Z,14.80
2017-11-04T23:30:01.898Z,14.80
2017-11-04T23:32:30.151Z,14.70
2017-11-04T23:34:57.649Z,14.70
2017-11-04T23:37:25.904Z,14.60
2017-11-04T23:39:53.391Z,14.60
2017-11-04T23:42:21.650Z,14.60
2017-11-04T23:44:50.380Z,14.60
2017-11-04T23:47:17.880Z,14.60
2017-11-04T23:49:45.460Z,14.50
2017-11-04T23:52:13.779Z,14.50
2017-11-04T23:54:41.248Z,14.50
2017-11-04T23:57:08.739Z,14.50
2017-11-04T23:59:36.246Z,14.50
